sensor_id;sensor_type;location;lat;lon;timestamp;P1;durP1;ratioP1;P2;durP2;ratioP2
78686;SDS011;68002;52.310;6.990;2023-07-22T00:01:02;6.57;;;3.97;;
78686;SDS011;68002;52.310;6.990;2023-07-22T00:03:27;8.57;;;4.53;;
78686;SDS011;68002;52.310;6.990;2023-07-22T00:06:09;8.68;;;4.00;;
78686;SDS011;68002;52.310;6.990;2023-07-22T00:10:59;6.88;;;3.85;;
78686;SDS011;68002;52.310;6.990;2023-07-22T00:13:24;7.97;;;4.03;;
78686;SDS011;68002;52.310;6.990;2023-07-22T00:15:49;7.33;;;4.27;;
78686;SDS011;68002;52.310;6.990;2023-07-22T00:18:15;7.30;;;3.97;;
78686;SDS011;68002;52.310;6.990;2023-07-22T00:20:40;6.03;;;3.35;;
78686;SDS011;68002;52.310;6.990;2023-07-22T00:23:05;9.07;;;4.15;;
78686;SDS011;68002;52.310;6.990;2023-07-22T00:25:30;7.50;;;4.15;;
78686;SDS011;68002;52.310;6.990;2023-07-22T00:27:55;9.77;;;3.78;;
78686;SDS011;68002;52.310;6.990;2023-07-22T00:30:20;6.32;;;3.80;;
78686;SDS011;68002;52.310;6.990;2023-07-22T00:32:45;7.75;;;4.88;;
78686;SDS011;68002;52.310;6.990;2023-07-22T00:35:10;5.90;;;3.78;;
78686;SDS011;68002;52.310;6.990;2023-07-22T00:37:35;9.52;;;4.25;;
78686;SDS011;68002;52.310;6.990;2023-07-22T00:40:01;7.20;;;4.25;;
78686;SDS011;68002;52.310;6.990;2023-07-22T00:42:26;7.95;;;3.95;;
78686;SDS011;68002;52.310;6.990;2023-07-22T00:44:51;9.27;;;4.38;;
78686;SDS011;68002;52.310;6.990;2023-07-22T00:47:16;7.82;;;4.47;;
78686;SDS011;68002;52.310;6.990;2023-07-22T00:49:42;7.45;;;2.92;;
78686;SDS011;68002;52.310;6.990;2023-07-22T00:52:07;8.33;;;3.90;;
78686;SDS011;68002;52.310;6.990;2023-07-22T00:54:32;10.33;;;4.07;;
78686;SDS011;68002;52.310;6.990;2023-07-22T00:56:58;7.13;;;3.50;;
78686;SDS011;68002;52.310;6.990;2023-07-22T00:59:24;6.53;;;2.72;;
78686;SDS011;68002;52.310;6.990;2023-07-22T01:01:49;8.15;;;4.15;;
78686;SDS011;68002;52.310;6.990;2023-07-22T01:04:14;7.40;;;4.00;;
78686;SDS011;68002;52.310;6.990;2023-07-22T01:06:40;6.75;;;3.53;;
78686;SDS011;68002;52.310;6.990;2023-07-22T01:09:05;8.67;;;4.90;;
78686;SDS011;68002;52.310;6.990;2023-07-22T01:11:30;7.50;;;4.65;;
78686;SDS011;68002;52.310;6.990;2023-07-22T01:13:56;6.38;;;4.18;;
78686;SDS011;68002;52.310;6.990;2023-07-22T01:16:21;8.88;;;5.70;;
78686;SDS011;68002;52.310;6.990;2023-07-22T01:18:46;7.25;;;3.17;;
78686;SDS011;68002;52.310;6.990;2023-07-22T01:21:11;7.27;;;5.47;;
78686;SDS011;68002;52.310;6.990;2023-07-22T01:23:36;5.20;;;3.07;;
78686;SDS011;68002;52.310;6.990;2023-07-22T01:26:03;6.00;;;3.70;;
78686;SDS011;68002;52.310;6.990;2023-07-22T01:28:28;6.20;;;4.70;;
78686;SDS011;68002;52.310;6.990;2023-07-22T01:30:53;6.32;;;4.00;;
78686;SDS011;68002;52.310;6.990;2023-07-22T01:33:18;7.93;;;4.63;;
78686;SDS011;68002;52.310;6.990;2023-07-22T01:35:43;7.07;;;4.22;;
78686;SDS011;68002;52.310;6.990;2023-07-22T01:38:08;9.70;;;5.13;;
78686;SDS011;68002;52.310;6.990;2023-07-22T01:40:33;8.93;;;4.78;;
78686;SDS011;68002;52.310;6.990;2023-07-22T01:42:58;8.45;;;4.55;;
78686;SDS011;68002;52.310;6.990;2023-07-22T01:45:24;8.80;;;4.82;;
78686;SDS011;68002;52.310;6.990;2023-07-22T01:47:49;8.73;;;4.97;;
78686;SDS011;68002;52.310;6.990;2023-07-22T01:50:14;9.70;;;4.60;;
78686;SDS011;68002;52.310;6.990;2023-07-22T01:52:39;8.23;;;4.50;;
78686;SDS011;68002;52.310;6.990;2023-07-22T01:55:04;11.07;;;5.03;;
78686;SDS011;68002;52.310;6.990;2023-07-22T01:57:29;11.02;;;5.03;;
78686;SDS011;68002;52.310;6.990;2023-07-22T01:59:55;10.32;;;5.57;;
78686;SDS011;68002;52.310;6.990;2023-07-22T02:02:20;12.50;;;6.57;;
78686;SDS011;68002;52.310;6.990;2023-07-22T02:04:45;9.57;;;5.23;;
78686;SDS011;68002;52.310;6.990;2023-07-22T02:07:10;8.82;;;4.00;;
78686;SDS011;68002;52.310;6.990;2023-07-22T02:09:36;7.75;;;4.47;;
78686;SDS011;68002;52.310;6.990;2023-07-22T02:12:01;9.23;;;5.35;;
78686;SDS011;68002;52.310;6.990;2023-07-22T02:14:26;9.80;;;5.37;;
78686;SDS011;68002;52.310;6.990;2023-07-22T02:16:51;7.63;;;3.42;;
78686;SDS011;68002;52.310;6.990;2023-07-22T02:19:16;11.48;;;5.75;;
78686;SDS011;68002;52.310;6.990;2023-07-22T02:21:41;9.75;;;5.15;;
78686;SDS011;68002;52.310;6.990;2023-07-22T02:24:07;10.37;;;5.90;;
78686;SDS011;68002;52.310;6.990;2023-07-22T02:26:32;9.10;;;4.00;;
78686;SDS011;68002;52.310;6.990;2023-07-22T02:28:57;10.13;;;5.82;;
78686;SDS011;68002;52.310;6.990;2023-07-22T02:31:22;9.43;;;5.50;;
78686;SDS011;68002;52.310;6.990;2023-07-22T02:33:47;10.55;;;6.72;;
78686;SDS011;68002;52.310;6.990;2023-07-22T02:36:13;9.60;;;5.40;;
78686;SDS011;68002;52.310;6.990;2023-07-22T02:38:38;9.87;;;5.03;;
78686;SDS011;68002;52.310;6.990;2023-07-22T02:41:03;10.23;;;6.25;;
78686;SDS011;68002;52.310;6.990;2023-07-22T02:43:28;9.07;;;5.30;;
78686;SDS011;68002;52.310;6.990;2023-07-22T02:45:54;10.00;;;5.60;;
78686;SDS011;68002;52.310;6.990;2023-07-22T02:48:20;8.45;;;3.58;;
78686;SDS011;68002;52.310;6.990;2023-07-22T02:50:45;10.45;;;4.82;;
78686;SDS011;68002;52.310;6.990;2023-07-22T02:53:10;8.35;;;4.07;;
78686;SDS011;68002;52.310;6.990;2023-07-22T02:55:35;9.15;;;5.07;;
78686;SDS011;68002;52.310;6.990;2023-07-22T02:58:00;9.63;;;4.78;;
78686;SDS011;68002;52.310;6.990;2023-07-22T03:00:25;10.30;;;4.97;;
78686;SDS011;68002;52.310;6.990;2023-07-22T03:02:54;12.48;;;5.57;;
78686;SDS011;68002;52.310;6.990;2023-07-22T03:05:19;8.05;;;4.78;;
78686;SDS011;68002;52.310;6.990;2023-07-22T03:07:44;9.47;;;5.03;;
78686;SDS011;68002;52.310;6.990;2023-07-22T03:10:10;8.07;;;4.53;;
78686;SDS011;68002;52.310;6.990;2023-07-22T03:12:35;9.60;;;4.93;;
78686;SDS011;68002;52.310;6.990;2023-07-22T03:15:01;10.57;;;5.15;;
78686;SDS011;68002;52.310;6.990;2023-07-22T03:17:26;10.95;;;5.72;;
78686;SDS011;68002;52.310;6.990;2023-07-22T03:19:51;9.70;;;6.53;;
78686;SDS011;68002;52.310;6.990;2023-07-22T03:22:17;11.27;;;6.15;;
78686;SDS011;68002;52.310;6.990;2023-07-22T03:24:42;11.38;;;6.10;;
78686;SDS011;68002;52.310;6.990;2023-07-22T03:27:07;15.45;;;6.68;;
78686;SDS011;68002;52.310;6.990;2023-07-22T03:29:32;10.40;;;4.93;;
78686;SDS011;68002;52.310;6.990;2023-07-22T03:31:58;10.93;;;5.80;;
78686;SDS011;68002;52.310;6.990;2023-07-22T03:34:23;11.57;;;6.93;;
78686;SDS011;68002;52.310;6.990;2023-07-22T03:36:48;11.20;;;5.87;;
78686;SDS011;68002;52.310;6.990;2023-07-22T03:39:13;13.40;;;6.47;;
78686;SDS011;68002;52.310;6.990;2023-07-22T03:41:38;12.18;;;6.65;;
78686;SDS011;68002;52.310;6.990;2023-07-22T03:44:03;10.88;;;6.05;;
78686;SDS011;68002;52.310;6.990;2023-07-22T03:46:28;9.85;;;5.68;;
78686;SDS011;68002;52.310;6.990;2023-07-22T03:48:54;11.25;;;5.47;;
78686;SDS011;68002;52.310;6.990;2023-07-22T03:51:19;9.23;;;4.50;;
78686;SDS011;68002;52.310;6.990;2023-07-22T03:53:44;10.23;;;5.53;;
78686;SDS011;68002;52.310;6.990;2023-07-22T03:56:09;9.32;;;5.22;;
78686;SDS011;68002;52.310;6.990;2023-07-22T03:58:34;9.98;;;5.47;;
78686;SDS011;68002;52.310;6.990;2023-07-22T04:00:59;9.27;;;4.55;;
78686;SDS011;68002;52.310;6.990;2023-07-22T04:03:24;10.85;;;5.43;;
78686;SDS011;68002;52.310;6.990;2023-07-22T04:05:56;8.40;;;4.55;;
78686;SDS011;68002;52.310;6.990;2023-07-22T04:08:21;11.02;;;5.70;;
78686;SDS011;68002;52.310;6.990;2023-07-22T04:10:53;9.10;;;5.00;;
78686;SDS011;68002;52.310;6.990;2023-07-22T04:13:18;8.85;;;6.35;;
78686;SDS011;68002;52.310;6.990;2023-07-22T04:15:43;11.07;;;6.70;;
78686;SDS011;68002;52.310;6.990;2023-07-22T04:18:08;11.48;;;5.57;;
78686;SDS011;68002;52.310;6.990;2023-07-22T04:20:33;9.50;;;4.20;;
78686;SDS011;68002;52.310;6.990;2023-07-22T04:22:58;9.63;;;5.82;;
78686;SDS011;68002;52.310;6.990;2023-07-22T04:25:23;9.65;;;5.65;;
78686;SDS011;68002;52.310;6.990;2023-07-22T04:27:48;8.23;;;4.38;;
78686;SDS011;68002;52.310;6.990;2023-07-22T04:30:13;8.32;;;4.70;;
78686;SDS011;68002;52.310;6.990;2023-07-22T04:32:39;10.13;;;5.80;;
78686;SDS011;68002;52.310;6.990;2023-07-22T04:35:04;12.57;;;6.53;;
78686;SDS011;68002;52.310;6.990;2023-07-22T04:37:29;12.47;;;7.13;;
78686;SDS011;68002;52.310;6.990;2023-07-22T04:39:54;13.73;;;6.72;;
78686;SDS011;68002;52.310;6.990;2023-07-22T04:42:19;11.93;;;6.80;;
78686;SDS011;68002;52.310;6.990;2023-07-22T04:44:44;10.45;;;6.15;;
78686;SDS011;68002;52.310;6.990;2023-07-22T04:47:09;12.20;;;6.13;;
78686;SDS011;68002;52.310;6.990;2023-07-22T04:49:35;10.93;;;6.40;;
78686;SDS011;68002;52.310;6.990;2023-07-22T04:52:00;12.60;;;6.38;;
78686;SDS011;68002;52.310;6.990;2023-07-22T04:54:25;10.25;;;6.00;;
78686;SDS011;68002;52.310;6.990;2023-07-22T04:56:50;8.20;;;5.70;;
78686;SDS011;68002;52.310;6.990;2023-07-22T04:59:15;12.20;;;6.22;;
78686;SDS011;68002;52.310;6.990;2023-07-22T05:01:40;11.80;;;6.97;;
78686;SDS011;68002;52.310;6.990;2023-07-22T05:04:05;14.15;;;7.68;;
78686;SDS011;68002;52.310;6.990;2023-07-22T05:06:30;10.73;;;6.13;;
78686;SDS011;68002;52.310;6.990;2023-07-22T05:08:55;12.45;;;6.82;;
78686;SDS011;68002;52.310;6.990;2023-07-22T05:11:21;13.35;;;6.65;;
78686;SDS011;68002;52.310;6.990;2023-07-22T05:13:46;11.05;;;6.60;;
78686;SDS011;68002;52.310;6.990;2023-07-22T05:16:11;12.32;;;6.22;;
78686;SDS011;68002;52.310;6.990;2023-07-22T05:18:36;12.68;;;6.75;;
78686;SDS011;68002;52.310;6.990;2023-07-22T05:21:01;10.57;;;6.30;;
78686;SDS011;68002;52.310;6.990;2023-07-22T05:23:26;12.20;;;6.68;;
78686;SDS011;68002;52.310;6.990;2023-07-22T05:25:52;11.85;;;6.47;;
78686;SDS011;68002;52.310;6.990;2023-07-22T05:28:17;10.85;;;6.20;;
78686;SDS011;68002;52.310;6.990;2023-07-22T05:30:42;10.60;;;5.80;;
78686;SDS011;68002;52.310;6.990;2023-07-22T05:33:07;13.63;;;7.68;;
78686;SDS011;68002;52.310;6.990;2023-07-22T05:35:32;11.32;;;6.32;;
78686;SDS011;68002;52.310;6.990;2023-07-22T05:37:57;10.90;;;5.35;;
78686;SDS011;68002;52.310;6.990;2023-07-22T05:40:22;11.85;;;6.93;;
78686;SDS011;68002;52.310;6.990;2023-07-22T05:42:47;13.68;;;7.47;;
78686;SDS011;68002;52.310;6.990;2023-07-22T05:45:12;11.15;;;6.40;;
78686;SDS011;68002;52.310;6.990;2023-07-22T05:47:38;15.27;;;8.50;;
78686;SDS011;68002;52.310;6.990;2023-07-22T05:50:03;11.65;;;6.35;;
78686;SDS011;68002;52.310;6.990;2023-07-22T05:52:28;13.33;;;7.17;;
78686;SDS011;68002;52.310;6.990;2023-07-22T05:54:53;11.98;;;7.55;;
78686;SDS011;68002;52.310;6.990;2023-07-22T05:57:18;11.85;;;6.28;;
78686;SDS011;68002;52.310;6.990;2023-07-22T05:59:43;12.40;;;7.60;;
78686;SDS011;68002;52.310;6.990;2023-07-22T06:02:09;13.30;;;7.30;;
78686;SDS011;68002;52.310;6.990;2023-07-22T06:04:34;13.70;;;7.50;;
78686;SDS011;68002;52.310;6.990;2023-07-22T06:06:59;14.63;;;7.97;;
78686;SDS011;68002;52.310;6.990;2023-07-22T06:09:24;12.40;;;5.75;;
78686;SDS011;68002;52.310;6.990;2023-07-22T06:11:49;14.48;;;7.97;;
78686;SDS011;68002;52.310;6.990;2023-07-22T06:14:14;14.82;;;8.98;;
78686;SDS011;68002;52.310;6.990;2023-07-22T06:16:39;15.73;;;8.27;;
78686;SDS011;68002;52.310;6.990;2023-07-22T06:19:04;15.65;;;7.00;;
78686;SDS011;68002;52.310;6.990;2023-07-22T06:21:30;15.98;;;8.80;;
78686;SDS011;68002;52.310;6.990;2023-07-22T06:23:55;13.38;;;7.80;;
78686;SDS011;68002;52.310;6.990;2023-07-22T06:26:20;14.77;;;9.13;;
78686;SDS011;68002;52.310;6.990;2023-07-22T06:28:45;15.52;;;8.35;;
78686;SDS011;68002;52.310;6.990;2023-07-22T06:31:10;16.83;;;8.80;;
78686;SDS011;68002;52.310;6.990;2023-07-22T06:33:35;13.13;;;9.13;;
78686;SDS011;68002;52.310;6.990;2023-07-22T06:36:00;13.75;;;8.48;;
78686;SDS011;68002;52.310;6.990;2023-07-22T06:38:25;15.38;;;8.02;;
78686;SDS011;68002;52.310;6.990;2023-07-22T06:40:53;14.40;;;7.88;;
78686;SDS011;68002;52.310;6.990;2023-07-22T06:43:18;17.08;;;9.57;;
78686;SDS011;68002;52.310;6.990;2023-07-22T06:45:44;15.83;;;8.40;;
78686;SDS011;68002;52.310;6.990;2023-07-22T06:48:09;15.55;;;9.10;;
78686;SDS011;68002;52.310;6.990;2023-07-22T06:50:34;13.52;;;7.80;;
78686;SDS011;68002;52.310;6.990;2023-07-22T06:52:59;15.32;;;9.23;;
78686;SDS011;68002;52.310;6.990;2023-07-22T06:55:24;12.15;;;7.13;;
78686;SDS011;68002;52.310;6.990;2023-07-22T06:57:49;15.20;;;8.23;;
78686;SDS011;68002;52.310;6.990;2023-07-22T07:00:14;17.42;;;8.40;;
78686;SDS011;68002;52.310;6.990;2023-07-22T07:02:40;16.00;;;9.27;;
78686;SDS011;68002;52.310;6.990;2023-07-22T07:05:06;17.15;;;9.85;;
78686;SDS011;68002;52.310;6.990;2023-07-22T07:07:31;18.17;;;10.23;;
78686;SDS011;68002;52.310;6.990;2023-07-22T07:09:56;15.50;;;9.35;;
78686;SDS011;68002;52.310;6.990;2023-07-22T07:12:21;15.00;;;8.77;;
78686;SDS011;68002;52.310;6.990;2023-07-22T07:14:46;15.55;;;10.30;;
78686;SDS011;68002;52.310;6.990;2023-07-22T07:17:14;14.30;;;8.65;;
78686;SDS011;68002;52.310;6.990;2023-07-22T07:19:39;16.45;;;8.80;;
78686;SDS011;68002;52.310;6.990;2023-07-22T07:22:04;15.25;;;9.15;;
78686;SDS011;68002;52.310;6.990;2023-07-22T07:24:30;15.77;;;9.33;;
78686;SDS011;68002;52.310;6.990;2023-07-22T07:26:55;18.77;;;10.73;;
78686;SDS011;68002;52.310;6.990;2023-07-22T07:29:20;16.05;;;9.18;;
78686;SDS011;68002;52.310;6.990;2023-07-22T07:31:45;17.95;;;8.40;;
78686;SDS011;68002;52.310;6.990;2023-07-22T07:34:10;15.00;;;8.85;;
78686;SDS011;68002;52.310;6.990;2023-07-22T07:36:35;13.05;;;8.35;;
78686;SDS011;68002;52.310;6.990;2023-07-22T07:39:00;13.63;;;7.45;;
78686;SDS011;68002;52.310;6.990;2023-07-22T07:41:25;16.93;;;9.80;;
78686;SDS011;68002;52.310;6.990;2023-07-22T07:43:52;15.15;;;8.88;;
78686;SDS011;68002;52.310;6.990;2023-07-22T07:46:18;17.42;;;9.18;;
78686;SDS011;68002;52.310;6.990;2023-07-22T07:48:44;14.73;;;8.10;;
78686;SDS011;68002;52.310;6.990;2023-07-22T07:51:09;17.00;;;10.05;;
78686;SDS011;68002;52.310;6.990;2023-07-22T07:53:34;14.77;;;8.93;;
78686;SDS011;68002;52.310;6.990;2023-07-22T07:56:00;14.68;;;8.95;;
78686;SDS011;68002;52.310;6.990;2023-07-22T07:58:25;12.68;;;8.80;;
78686;SDS011;68002;52.310;6.990;2023-07-22T08:00:50;14.40;;;9.32;;
78686;SDS011;68002;52.310;6.990;2023-07-22T08:03:15;15.77;;;9.45;;
78686;SDS011;68002;52.310;6.990;2023-07-22T08:05:40;13.27;;;8.80;;
78686;SDS011;68002;52.310;6.990;2023-07-22T08:08:05;14.60;;;8.90;;
78686;SDS011;68002;52.310;6.990;2023-07-22T08:10:30;13.93;;;8.73;;
78686;SDS011;68002;52.310;6.990;2023-07-22T08:12:55;15.30;;;8.63;;
78686;SDS011;68002;52.310;6.990;2023-07-22T08:15:20;13.50;;;8.75;;
78686;SDS011;68002;52.310;6.990;2023-07-22T08:17:46;15.02;;;9.13;;
78686;SDS011;68002;52.310;6.990;2023-07-22T08:20:11;13.70;;;8.55;;
78686;SDS011;68002;52.310;6.990;2023-07-22T08:22:36;13.57;;;9.73;;
78686;SDS011;68002;52.310;6.990;2023-07-22T08:25:01;11.45;;;8.35;;
78686;SDS011;68002;52.310;6.990;2023-07-22T08:27:26;12.48;;;7.80;;
78686;SDS011;68002;52.310;6.990;2023-07-22T08:29:51;10.90;;;6.47;;
78686;SDS011;68002;52.310;6.990;2023-07-22T08:32:17;11.25;;;7.97;;
78686;SDS011;68002;52.310;6.990;2023-07-22T08:34:42;10.48;;;7.03;;
78686;SDS011;68002;52.310;6.990;2023-07-22T08:37:07;11.35;;;7.28;;
78686;SDS011;68002;52.310;6.990;2023-07-22T08:39:32;10.38;;;6.70;;
78686;SDS011;68002;52.310;6.990;2023-07-22T08:41:57;8.80;;;5.95;;
78686;SDS011;68002;52.310;6.990;2023-07-22T08:44:23;11.77;;;6.95;;
78686;SDS011;68002;52.310;6.990;2023-07-22T08:46:50;9.27;;;5.63;;
78686;SDS011;68002;52.310;6.990;2023-07-22T08:49:19;9.77;;;6.82;;
78686;SDS011;68002;52.310;6.990;2023-07-22T08:51:44;10.15;;;6.32;;
78686;SDS011;68002;52.310;6.990;2023-07-22T08:54:10;9.95;;;5.70;;
78686;SDS011;68002;52.310;6.990;2023-07-22T08:56:35;10.13;;;6.30;;
78686;SDS011;68002;52.310;6.990;2023-07-22T08:59:00;9.37;;;5.40;;
78686;SDS011;68002;52.310;6.990;2023-07-22T09:01:26;7.75;;;4.63;;
78686;SDS011;68002;52.310;6.990;2023-07-22T09:03:51;9.53;;;6.23;;
78686;SDS011;68002;52.310;6.990;2023-07-22T09:06:17;8.93;;;5.45;;
78686;SDS011;68002;52.310;6.990;2023-07-22T09:08:42;9.88;;;6.47;;
78686;SDS011;68002;52.310;6.990;2023-07-22T09:11:08;8.80;;;6.00;;
78686;SDS011;68002;52.310;6.990;2023-07-22T09:13:33;8.55;;;6.10;;
78686;SDS011;68002;52.310;6.990;2023-07-22T09:15:58;11.17;;;6.70;;
78686;SDS011;68002;52.310;6.990;2023-07-22T09:18:24;7.35;;;5.30;;
78686;SDS011;68002;52.310;6.990;2023-07-22T09:20:49;6.60;;;4.30;;
78686;SDS011;68002;52.310;6.990;2023-07-22T09:23:15;8.52;;;5.20;;
78686;SDS011;68002;52.310;6.990;2023-07-22T09:25:40;7.15;;;4.90;;
78686;SDS011;68002;52.310;6.990;2023-07-22T09:28:05;8.13;;;4.95;;
78686;SDS011;68002;52.310;6.990;2023-07-22T09:30:34;6.93;;;4.45;;
78686;SDS011;68002;52.310;6.990;2023-07-22T09:33:00;8.02;;;4.63;;
78686;SDS011;68002;52.310;6.990;2023-07-22T09:35:27;7.80;;;4.80;;
78686;SDS011;68002;52.310;6.990;2023-07-22T09:37:52;7.55;;;5.15;;
78686;SDS011;68002;52.310;6.990;2023-07-22T09:40:18;8.18;;;5.45;;
78686;SDS011;68002;52.310;6.990;2023-07-22T09:42:44;5.93;;;4.35;;
78686;SDS011;68002;52.310;6.990;2023-07-22T09:45:10;9.52;;;5.80;;
78686;SDS011;68002;52.310;6.990;2023-07-22T09:47:45;6.95;;;4.70;;
78686;SDS011;68002;52.310;6.990;2023-07-22T09:50:11;8.43;;;4.72;;
78686;SDS011;68002;52.310;6.990;2023-07-22T09:52:46;8.00;;;5.13;;
78686;SDS011;68002;52.310;6.990;2023-07-22T09:55:12;8.52;;;4.35;;
78686;SDS011;68002;52.310;6.990;2023-07-22T09:57:37;6.15;;;4.07;;
78686;SDS011;68002;52.310;6.990;2023-07-22T10:00:03;6.72;;;3.22;;
78686;SDS011;68002;52.310;6.990;2023-07-22T10:02:28;5.78;;;4.28;;
78686;SDS011;68002;52.310;6.990;2023-07-22T10:04:54;6.75;;;4.28;;
78686;SDS011;68002;52.310;6.990;2023-07-22T10:07:22;7.00;;;3.33;;
78686;SDS011;68002;52.310;6.990;2023-07-22T10:09:48;9.93;;;5.95;;
78686;SDS011;68002;52.310;6.990;2023-07-22T10:12:14;9.73;;;5.97;;
78686;SDS011;68002;52.310;6.990;2023-07-22T10:14:39;8.07;;;5.40;;
78686;SDS011;68002;52.310;6.990;2023-07-22T10:17:05;9.40;;;5.90;;
78686;SDS011;68002;52.310;6.990;2023-07-22T10:19:31;9.27;;;6.18;;
78686;SDS011;68002;52.310;6.990;2023-07-22T10:21:56;10.30;;;5.50;;
78686;SDS011;68002;52.310;6.990;2023-07-22T10:24:22;8.75;;;5.65;;
78686;SDS011;68002;52.310;6.990;2023-07-22T10:26:47;10.07;;;5.97;;
78686;SDS011;68002;52.310;6.990;2023-07-22T10:29:12;9.87;;;5.00;;
78686;SDS011;68002;52.310;6.990;2023-07-22T10:31:38;10.00;;;5.65;;
78686;SDS011;68002;52.310;6.990;2023-07-22T10:34:03;9.15;;;4.45;;
78686;SDS011;68002;52.310;6.990;2023-07-22T10:36:29;8.38;;;5.53;;
78686;SDS011;68002;52.310;6.990;2023-07-22T10:38:58;8.48;;;5.57;;
78686;SDS011;68002;52.310;6.990;2023-07-22T10:43:55;8.60;;;4.28;;
78686;SDS011;68002;52.310;6.990;2023-07-22T10:46:30;10.15;;;4.43;;
78686;SDS011;68002;52.310;6.990;2023-07-22T10:51:21;9.00;;;4.30;;
78686;SDS011;68002;52.310;6.990;2023-07-22T10:53:46;7.03;;;4.37;;
78686;SDS011;68002;52.310;6.990;2023-07-22T11:04:02;7.47;;;5.35;;
78686;SDS011;68002;52.310;6.990;2023-07-22T11:06:27;7.90;;;4.78;;
78686;SDS011;68002;52.310;6.990;2023-07-22T11:08:53;7.95;;;5.53;;
78686;SDS011;68002;52.310;6.990;2023-07-22T11:11:20;10.00;;;5.57;;
78686;SDS011;68002;52.310;6.990;2023-07-22T11:13:45;8.93;;;6.30;;
78686;SDS011;68002;52.310;6.990;2023-07-22T11:16:11;10.68;;;6.82;;
78686;SDS011;68002;52.310;6.990;2023-07-22T11:18:36;7.90;;;4.97;;
78686;SDS011;68002;52.310;6.990;2023-07-22T11:21:02;6.93;;;5.40;;
78686;SDS011;68002;52.310;6.990;2023-07-22T11:23:27;8.35;;;5.40;;
78686;SDS011;68002;52.310;6.990;2023-07-22T11:25:52;7.47;;;5.20;;
78686;SDS011;68002;52.310;6.990;2023-07-22T11:28:17;8.55;;;4.78;;
78686;SDS011;68002;52.310;6.990;2023-07-22T11:30:42;6.85;;;4.47;;
78686;SDS011;68002;52.310;6.990;2023-07-22T11:33:07;7.57;;;4.30;;
78686;SDS011;68002;52.310;6.990;2023-07-22T11:35:32;6.95;;;4.80;;
78686;SDS011;68002;52.310;6.990;2023-07-22T11:38:01;7.93;;;4.80;;
78686;SDS011;68002;52.310;6.990;2023-07-22T11:40:32;6.00;;;4.30;;
78686;SDS011;68002;52.310;6.990;2023-07-22T11:42:57;6.53;;;3.72;;
78686;SDS011;68002;52.310;6.990;2023-07-22T11:45:22;8.25;;;4.88;;
78686;SDS011;68002;52.310;6.990;2023-07-22T11:47:48;8.50;;;4.57;;
78686;SDS011;68002;52.310;6.990;2023-07-22T11:50:13;6.10;;;4.05;;
78686;SDS011;68002;52.310;6.990;2023-07-22T11:52:38;7.90;;;4.32;;
78686;SDS011;68002;52.310;6.990;2023-07-22T11:55:04;6.22;;;4.10;;
78686;SDS011;68002;52.310;6.990;2023-07-22T11:57:29;5.80;;;4.27;;
78686;SDS011;68002;52.310;6.990;2023-07-22T11:59:55;4.75;;;3.42;;
78686;SDS011;68002;52.310;6.990;2023-07-22T12:02:24;5.15;;;3.45;;
78686;SDS011;68002;52.310;6.990;2023-07-22T12:09:53;6.40;;;4.00;;
78686;SDS011;68002;52.310;6.990;2023-07-22T12:12:18;5.50;;;3.70;;
78686;SDS011;68002;52.310;6.990;2023-07-22T12:14:43;6.70;;;3.73;;
78686;SDS011;68002;52.310;6.990;2023-07-22T12:17:08;5.18;;;3.55;;
78686;SDS011;68002;52.310;6.990;2023-07-22T12:19:34;5.78;;;3.70;;
78686;SDS011;68002;52.310;6.990;2023-07-22T12:21:59;6.47;;;3.97;;
78686;SDS011;68002;52.310;6.990;2023-07-22T12:24:24;5.43;;;3.30;;
78686;SDS011;68002;52.310;6.990;2023-07-22T12:26:49;7.32;;;4.65;;
78686;SDS011;68002;52.310;6.990;2023-07-22T12:29:14;7.00;;;4.60;;
78686;SDS011;68002;52.310;6.990;2023-07-22T12:31:39;5.35;;;3.85;;
78686;SDS011;68002;52.310;6.990;2023-07-22T12:34:05;4.57;;;3.28;;
78686;SDS011;68002;52.310;6.990;2023-07-22T12:36:30;5.07;;;3.50;;
78686;SDS011;68002;52.310;6.990;2023-07-22T12:38:55;6.93;;;3.42;;
78686;SDS011;68002;52.310;6.990;2023-07-22T12:41:20;4.50;;;3.17;;
78686;SDS011;68002;52.310;6.990;2023-07-22T12:43:45;6.88;;;3.55;;
78686;SDS011;68002;52.310;6.990;2023-07-22T12:46:10;4.22;;;3.03;;
78686;SDS011;68002;52.310;6.990;2023-07-22T12:48:35;6.35;;;3.45;;
78686;SDS011;68002;52.310;6.990;2023-07-22T12:51:00;5.65;;;3.33;;
78686;SDS011;68002;52.310;6.990;2023-07-22T12:53:26;5.33;;;3.60;;
78686;SDS011;68002;52.310;6.990;2023-07-22T12:55:51;5.77;;;4.53;;
78686;SDS011;68002;52.310;6.990;2023-07-22T12:58:16;6.35;;;3.95;;
78686;SDS011;68002;52.310;6.990;2023-07-22T13:00:41;6.75;;;3.58;;
78686;SDS011;68002;52.310;6.990;2023-07-22T13:03:06;5.63;;;3.83;;
78686;SDS011;68002;52.310;6.990;2023-07-22T13:05:31;6.40;;;3.97;;
78686;SDS011;68002;52.310;6.990;2023-07-22T13:07:56;6.68;;;4.63;;
78686;SDS011;68002;52.310;6.990;2023-07-22T13:10:22;8.32;;;5.20;;
78686;SDS011;68002;52.310;6.990;2023-07-22T13:12:47;8.90;;;5.50;;
78686;SDS011;68002;52.310;6.990;2023-07-22T13:15:12;10.52;;;5.70;;
78686;SDS011;68002;52.310;6.990;2023-07-22T13:17:37;8.63;;;5.80;;
78686;SDS011;68002;52.310;6.990;2023-07-22T13:20:03;7.38;;;4.70;;
78686;SDS011;68002;52.310;6.990;2023-07-22T13:22:28;7.18;;;4.75;;
78686;SDS011;68002;52.310;6.990;2023-07-22T13:24:54;6.57;;;4.47;;
78686;SDS011;68002;52.310;6.990;2023-07-22T13:27:19;7.57;;;4.50;;
78686;SDS011;68002;52.310;6.990;2023-07-22T13:29:44;6.97;;;4.80;;
78686;SDS011;68002;52.310;6.990;2023-07-22T13:32:09;6.45;;;4.18;;
78686;SDS011;68002;52.310;6.990;2023-07-22T13:34:34;6.97;;;4.47;;
78686;SDS011;68002;52.310;6.990;2023-07-22T13:36:59;10.00;;;4.95;;
78686;SDS011;68002;52.310;6.990;2023-07-22T13:39:25;5.78;;;3.80;;
78686;SDS011;68002;52.310;6.990;2023-07-22T13:41:50;6.65;;;5.38;;
78686;SDS011;68002;52.310;6.990;2023-07-22T13:44:15;7.43;;;4.50;;
78686;SDS011;68002;52.310;6.990;2023-07-22T13:46:40;8.13;;;4.75;;
78686;SDS011;68002;52.310;6.990;2023-07-22T13:49:05;6.85;;;4.68;;
78686;SDS011;68002;52.310;6.990;2023-07-22T13:51:30;8.10;;;5.78;;
78686;SDS011;68002;52.310;6.990;2023-07-22T13:53:56;8.25;;;4.50;;
78686;SDS011;68002;52.310;6.990;2023-07-22T13:56:21;8.52;;;4.70;;
78686;SDS011;68002;52.310;6.990;2023-07-22T13:58:46;7.25;;;4.53;;
78686;SDS011;68002;52.310;6.990;2023-07-22T14:01:12;6.20;;;4.88;;
78686;SDS011;68002;52.310;6.990;2023-07-22T14:03:37;8.25;;;5.18;;
78686;SDS011;68002;52.310;6.990;2023-07-22T14:06:02;7.95;;;3.72;;
78686;SDS011;68002;52.310;6.990;2023-07-22T14:08:27;8.70;;;5.35;;
78686;SDS011;68002;52.310;6.990;2023-07-22T14:10:53;7.68;;;5.78;;
78686;SDS011;68002;52.310;6.990;2023-07-22T14:13:18;6.70;;;5.15;;
78686;SDS011;68002;52.310;6.990;2023-07-22T14:15:43;8.07;;;5.85;;
78686;SDS011;68002;52.310;6.990;2023-07-22T14:18:08;9.40;;;5.47;;
78686;SDS011;68002;52.310;6.990;2023-07-22T14:20:33;9.98;;;6.15;;
78686;SDS011;68002;52.310;6.990;2023-07-22T14:22:58;6.80;;;4.70;;
78686;SDS011;68002;52.310;6.990;2023-07-22T14:25:23;9.63;;;6.57;;
78686;SDS011;68002;52.310;6.990;2023-07-22T14:27:48;9.43;;;6.30;;
78686;SDS011;68002;52.310;6.990;2023-07-22T14:30:14;9.10;;;5.53;;
78686;SDS011;68002;52.310;6.990;2023-07-22T14:32:39;8.47;;;6.80;;
78686;SDS011;68002;52.310;6.990;2023-07-22T14:35:04;9.68;;;6.88;;
78686;SDS011;68002;52.310;6.990;2023-07-22T14:37:29;11.68;;;7.63;;
78686;SDS011;68002;52.310;6.990;2023-07-22T14:39:54;10.73;;;7.03;;
78686;SDS011;68002;52.310;6.990;2023-07-22T14:42:20;8.45;;;6.72;;
78686;SDS011;68002;52.310;6.990;2023-07-22T14:44:45;10.50;;;7.80;;
78686;SDS011;68002;52.310;6.990;2023-07-22T14:47:10;10.02;;;6.53;;
78686;SDS011;68002;52.310;6.990;2023-07-22T14:49:35;9.45;;;7.70;;
78686;SDS011;68002;52.310;6.990;2023-07-22T14:52:00;10.55;;;6.90;;